Terminal Aerodrome Forecast
Issued by NWS

Home | Current Version | Previous Version | Graphics & Text | Print | Product List | Glossary On
Versions: 1 2 3 4 5 6 7 8 9 10 11 12 13 14 15 16 17
000
FTUS43 KGRB 251136
TAFCWA
TAF
KCWA 251136Z 2512/2612 29010KT P6SM BKN015 OVC025
     FM251400 31012G20KT P6SM SCT023 BKN035
      TEMPO 2514/2517 BKN023
     FM260000 33009KT P6SM SCT035 BKN050
     FM260300 34004KT P6SM SKC=

USA.gov is the U.S. government's official web portal to all federal, state and local government web resources and services.